Scotch Plains, NJ (07076)

9:09 AM EDT on August 20, 2014 (GMT -0400)
Plainfield, NJ 07060 | Change Station
CLOSE
Current Station
Personal Weather Station
Location: Plainfield, NJ
Elevation: 95 ft
Nearby Weather Stations

Elev 95 ft 40.61 °N, 74.40 °W | Updated 4 seconds ago

Mostly Cloudy
Mostly Cloudy
71.8 °F
Feels Like 70 °F
N
0.0
Wind Variable Wind from NE
Gusts 0.0 mph

Today
High -- | Low -- °F
--% Chance of Precip.
Yesterday
High -- | Low -- °F
Precip. -- in
6:12 AM 7:48 PM
Waning Crescent, 22% visible
Pressure 30.01 in
Visibility 10.0 miles
Clouds Scattered Clouds 4700 ft
Mostly Cloudy 9000 ft
Heat Index 70 °F
Dew Point 68 °F
Humidity 87%
Rainfall 0.00 in
Snow Depth Not available.
UV 2 out of 12
Pollen 9.70 out of 12
Air Quality Not available.
Flu Activity Not available.
METAR KLDJ 201255Z AUTO 00000KT 10SM SCT047 BKN090 26/18 A3001 RMK AO2 T02550184

More Conditions Fewer Conditions

Pressure 30.01 in
Visibility 10.0 miles
Clouds Scattered Clouds 4700 ft
Mostly Cloudy 9000 ft
Heat Index 70 °F
Dew Point 68 °F
Humidity 87%
Rainfall 0.00 in
Snow Depth Not available.
UV 2 out of 12
Pollen 9.70 out of 12
Air Quality Not available.
Flu Activity Not available.
METAR KLDJ 201255Z AUTO 00000KT 10SM SCT047 BKN090 26/18 A3001 RMK AO2 T02550184

More Conditions Fewer Conditions

10-Day Weather Forecast

Almanac

Astronomy

Aug. 20, 2014 Rise Set
Actual Time 6:12 AM EDT 7:48 PM EDT
Civil Twilight 5:43 AM EDT 8:16 PM EDT
Nautical Twilight 5:08 AM EDT 8:51 PM EDT
Astronomical Twilight 4:31 AM EDT 9:28 PM EDT
Moon 1:50 AM EDT 4:31 PM EDT
Length of Visible Light 14h 33m
Length of Day
13h 35m
Tomorrow will be 2m 26s shorter.
Waning Crescent, 22% of the Moon is Illuminated
Today
Waning Crescent
Aug 25
New
Sep 2
First Quarter
Sep 8
Full
Sep 15
Last Quarter

Today's Extremes

State Highs State Lows

Community

WunderPhotos

Upload Photos

1,745,620 photos uploaded!

Nearby

Snow Depth

Station Depth Elevation
No new snow has been reported.

Earthquake Activity

City Distance Mag. Time & Date
Deep River Center, Connecticut 110 miles 2.7 3:09 AM EDT
2014-08-14
Minimum magnitude displayed is 2.5.

Coastal Water Temperatures

Place Temperature
The Battery, NY 73.0 °F
Bergen Point West Reach, NJ 73.9 °F
Kings Point, NY 72.0 °F

Nearby Weather Stations